Time;durP1;ratioP1;P1;durP2;ratioP2;P2;SDS_P1;SDS_P2;PMS_P1;PMS_P2;Temp;Humidity;BMP_temperature;BMP_pressure;BME280_temperature;BME280_humidity;BME280_pressure;Samples;Min_cycle;Max_cycle;Signal;HPM_P1;HPM_P2
2022/03/13 00:01:46;;;;;;;27.20;16.80;;;0.80;99.90;;;;;;4959345;28;20277;-78
2022/03/13 00:04:13;;;;;;;31.50;15.83;;;0.80;99.90;;;;;;4958859;28;20781;-79
2022/03/13 00:06:39;;;;;;;31.50;15.53;;;0.80;99.90;;;;;;4957723;28;20894;-79
2022/03/13 00:09:12;;;;;;;26.83;15.60;;;0.70;99.90;;;;;;4957144;28;20431;-78
2022/03/13 00:11:37;;;;;;;29.80;17.23;;;0.60;99.90;;;;;;4957931;28;20272;-78
2022/03/13 00:14:09;;;;;;;31.13;16.43;;;0.50;99.90;;;;;;4958945;28;20206;-78
2022/03/13 00:16:36;;;;;;;29.57;16.13;;;0.50;99.90;;;;;;4959625;28;20182;-79
2022/03/13 00:19:01;;;;;;;29.83;15.70;;;0.40;99.90;;;;;;4962918;28;20169;-79
2022/03/13 00:21:27;;;;;;;27.77;15.93;;;0.70;99.90;;;;;;4961809;28;20432;-78
2022/03/13 00:23:54;;;;;;;25.17;14.50;;;0.20;99.90;;;;;;4963039;28;20173;-79
2022/03/13 00:26:20;;;;;;;28.37;14.90;;;0.50;99.90;;;;;;4963146;28;20495;-81
2022/03/13 00:28:46;;;;;;;30.63;14.90;;;0.10;99.90;;;;;;4963372;28;20484;-81
2022/03/13 00:31:13;;;;;;;32.07;15.37;;;0.10;99.90;;;;;;4962889;28;20216;-81
2022/03/13 00:33:38;;;;;;;28.73;14.40;;;0.00;99.90;;;;;;4963778;28;20424;-81
2022/03/13 00:36:04;;;;;;;30.57;15.43;;;1.70;99.90;;;;;;4963568;28;20864;-81
2022/03/13 00:38:30;;;;;;;26.93;14.97;;;0.00;99.90;;;;;;4963157;28;20280;-81
2022/03/13 00:40:58;;;;;;;24.77;14.30;;;1.30;99.90;;;;;;4963426;29;20460;-81
2022/03/13 00:43:25;;;;;;;24.27;13.00;;;0.10;99.90;;;;;;4962795;28;20619;-81
2022/03/13 00:45:52;;;;;;;25.63;13.77;;;-0.10;99.90;;;;;;4962651;28;20467;-80
2022/03/13 00:48:18;;;;;;;37.47;15.70;;;-0.20;99.90;;;;;;4963280;28;20974;-81
2022/03/13 00:50:44;;;;;;;25.50;14.50;;;-0.20;99.90;;;;;;4965435;28;20445;-80
2022/03/13 00:53:10;;;;;;;24.80;14.20;;;0.50;99.90;;;;;;4964264;28;20181;-80
2022/03/13 00:55:36;;;;;;;27.73;14.03;;;1.20;99.90;;;;;;4962289;28;20472;-81
2022/03/13 00:58:02;;;;;;;29.90;16.27;;;-0.30;99.90;;;;;;4968443;28;20422;-80
2022/03/13 01:00:28;;;;;;;28.70;14.30;;;-0.20;99.90;;;;;;4969756;28;20475;-80
2022/03/13 01:02:54;;;;;;;26.83;14.87;;;1.80;99.90;;;;;;4974640;28;20674;-79
2022/03/13 01:05:22;;;;;;;32.10;15.07;;;-0.20;99.90;;;;;;4965866;28;20460;-80
2022/03/13 01:07:48;;;;;;;29.50;15.00;;;-0.10;99.90;;;;;;4963673;28;20563;-80
2022/03/13 01:10:14;;;;;;;27.40;14.13;;;;;;;;;;4961831;28;20899;-80
2022/03/13 01:12:40;;;;;;;22.77;13.73;;;-0.10;99.90;;;;;;4961216;28;20425;-80
2022/03/13 01:15:08;;;;;;;22.50;13.53;;;0.10;99.90;;;;;;4962949;28;20839;-80
2022/03/13 01:17:34;;;;;;;26.97;14.70;;;-0.10;99.90;;;;;;4961182;28;20185;-81
2022/03/13 01:20:01;;;;;;;25.17;13.57;;;-0.20;99.90;;;;;;4961647;28;20471;-80
2022/03/13 01:22:27;;;;;;;28.10;15.13;;;-0.30;99.90;;;;;;4962379;28;20753;-81
2022/03/13 01:24:53;;;;;;;27.07;15.07;;;-0.30;99.90;;;;;;4962259;28;20954;-80
2022/03/13 01:27:21;;;;;;;21.93;12.50;;;-0.30;99.90;;;;;;4962577;28;20928;-80
2022/03/13 01:29:47;;;;;;;27.37;14.23;;;0.50;99.90;;;;;;4962606;28;20906;-80
2022/03/13 01:32:13;;;;;;;28.83;14.50;;;-0.50;99.90;;;;;;4962367;28;20492;-80
2022/03/13 01:34:51;;;;;;;25.37;13.00;;;1.00;99.90;;;;;;4961445;28;20433;-80
2022/03/13 01:37:33;;;;;;;23.80;12.60;;;-0.50;99.90;;;;;;4961238;28;20934;-80
2022/03/13 01:40:02;;;;;;;22.63;13.23;;;-0.50;99.90;;;;;;4962696;28;20799;-80
2022/03/13 01:42:27;;;;;;;26.20;12.60;;;0.80;99.90;;;;;;4961266;28;20416;-80
2022/03/13 01:44:53;;;;;;;23.93;13.40;;;-0.40;99.90;;;;;;4962702;28;20474;-80
2022/03/13 01:47:19;;;;;;;23.27;13.23;;;0.50;99.90;;;;;;4963078;28;20184;-80
2022/03/13 01:49:46;;;;;;;26.43;13.97;;;1.30;99.90;;;;;;4962734;28;20300;-80
2022/03/13 01:52:12;;;;;;;22.20;13.37;;;-0.40;99.90;;;;;;4961448;28;20504;-80
2022/03/13 01:54:39;;;;;;;24.97;13.67;;;-0.30;99.90;;;;;;4961180;28;20464;-80
2022/03/13 01:57:04;;;;;;;24.03;13.20;;;-0.30;99.90;;;;;;4962546;28;20180;-80
2022/03/13 01:59:30;;;;;;;24.10;12.03;;;-0.20;99.90;;;;;;4961568;28;20507;-80
2022/03/13 02:01:57;;;;;;;23.67;12.47;;;-0.20;99.90;;;;;;4962351;28;20268;-80
2022/03/13 02:04:28;;;;;;;27.03;12.87;;;-0.30;99.90;;;;;;4962209;28;20201;-80
2022/03/13 02:06:58;;;;;;;28.27;11.73;;;-0.30;99.90;;;;;;4960888;28;20503;-80
2022/03/13 02:09:24;;;;;;;27.43;12.50;;;-0.30;99.90;;;;;;4962134;28;20416;-80
2022/03/13 02:11:51;;;;;;;24.10;13.30;;;-0.30;99.90;;;;;;4960864;28;20408;-81
2022/03/13 02:14:21;;;;;;;30.13;13.97;;;-0.30;99.90;;;;;;4960975;28;20419;-78
2022/03/13 02:16:47;;;;;;;22.93;12.37;;;-0.30;99.90;;;;;;4958382;28;20981;-78
2022/03/13 02:19:14;;;;;;;23.63;12.50;;;-0.30;99.90;;;;;;4959020;28;20903;-78
2022/03/13 02:21:45;;;;;;;22.73;12.10;;;-0.30;99.90;;;;;;4959960;28;20420;-78
2022/03/13 02:24:21;;;;;;;20.03;11.13;;;-0.30;99.90;;;;;;4958220;28;20424;-78
2022/03/13 02:27:05;;;;;;;20.80;12.10;;;-0.30;99.90;;;;;;4959563;28;20417;-79
2022/03/13 02:29:31;;;;;;;20.63;11.83;;;-0.30;99.90;;;;;;4960933;28;20393;-79
2022/03/13 02:31:59;;;;;;;23.83;12.40;;;-0.30;99.90;;;;;;4959160;28;20413;-79
2022/03/13 02:34:25;;;;;;;24.47;11.37;;;-0.40;99.90;;;;;;4959276;28;20307;-79
2022/03/13 02:36:50;;;;;;;23.43;12.63;;;-0.40;99.90;;;;;;4959151;28;20844;-79
2022/03/13 02:39:17;;;;;;;24.63;11.87;;;;;;;;;;4958177;28;20473;-79
2022/03/13 02:41:43;;;;;;;19.67;11.27;;;-0.40;99.90;;;;;;4959922;28;20537;-79
2022/03/13 02:44:11;;;;;;;27.57;11.90;;;-0.50;99.90;;;;;;4958291;28;20428;-78
2022/03/13 02:46:46;;;;;;;25.27;12.63;;;-0.60;99.90;;;;;;4958489;28;21008;-79
2022/03/13 02:49:18;;;;;;;23.07;11.37;;;-0.60;99.90;;;;;;4958586;28;20767;-78
2022/03/13 02:51:44;;;;;;;23.73;12.13;;;-0.60;99.90;;;;;;4959032;28;20788;-79
2022/03/13 02:54:11;;;;;;;23.87;12.30;;;-0.70;99.90;;;;;;4958214;28;20432;-79
2022/03/13 02:56:37;;;;;;;20.60;12.03;;;-0.70;99.90;;;;;;4958337;28;20197;-78
2022/03/13 02:59:03;;;;;;;22.23;10.93;;;-0.80;99.90;;;;;;4959013;28;20755;-78
2022/03/13 03:01:29;;;;;;;19.33;11.13;;;-0.10;99.90;;;;;;4958447;28;20232;-79
2022/03/13 03:04:01;;;;;;;22.97;11.50;;;-0.90;99.90;;;;;;4959815;28;20519;-79
2022/03/13 03:06:32;;;;;;;23.10;12.20;;;-0.90;99.90;;;;;;4958423;28;20468;-79
2022/03/13 03:09:02;;;;;;;22.70;12.00;;;-0.20;99.90;;;;;;4958967;28;20829;-78
2022/03/13 03:11:28;;;;;;;27.13;11.97;;;-1.00;99.90;;;;;;4958346;28;20432;-79
2022/03/13 03:13:53;;;;;;;20.60;11.23;;;-1.00;99.90;;;;;;4959851;28;20456;-78
2022/03/13 03:16:19;;;;;;;21.93;11.67;;;-1.00;99.90;;;;;;4959331;28;20441;-78
2022/03/13 03:18:46;;;;;;;20.23;11.83;;;0.60;99.90;;;;;;4960719;28;20235;-79
2022/03/13 03:21:13;;;;;;;25.80;12.17;;;-1.00;99.90;;;;;;4960291;28;20674;-78
2022/03/13 03:23:39;;;;;;;23.33;12.07;;;-0.90;99.90;;;;;;4961198;29;20428;-78
2022/03/13 03:26:06;;;;;;;23.53;11.20;;;-0.90;99.90;;;;;;4961921;28;20468;-78
2022/03/13 03:28:34;;;;;;;23.53;12.20;;;0.00;99.90;;;;;;4960600;28;20428;-79
2022/03/13 03:31:00;;;;;;;20.57;11.47;;;0.90;99.90;;;;;;4959965;28;20413;-79
2022/03/13 03:33:27;;;;;;;23.97;11.53;;;-0.90;99.90;;;;;;4958258;28;20429;-79
2022/03/13 03:35:52;;;;;;;21.23;10.60;;;-0.70;99.90;;;;;;4958324;28;20452;-78
2022/03/13 03:38:18;;;;;;;20.17;10.70;;;-0.90;99.90;;;;;;4957158;28;20512;-79
2022/03/13 03:40:44;;;;;;;21.60;11.07;;;-1.00;99.90;;;;;;4958401;28;20188;-78
2022/03/13 03:43:09;;;;;;;21.43;10.67;;;-1.10;99.90;;;;;;4956514;28;20189;-79
2022/03/13 03:45:35;;;;;;;19.33;10.93;;;-1.10;99.90;;;;;;4956405;28;20217;-78
2022/03/13 03:48:01;;;;;;;25.43;11.30;;;-1.20;99.90;;;;;;4957007;28;20232;-79
2022/03/13 03:50:27;;;;;;;21.70;11.77;;;-0.30;99.90;;;;;;4959566;28;20183;-79
2022/03/13 03:52:55;;;;;;;18.03;10.90;;;-1.10;99.90;;;;;;4960959;28;20201;-79
2022/03/13 03:55:22;;;;;;;19.83;11.00;;;-1.00;99.90;;;;;;4959535;28;20216;-79
2022/03/13 03:57:48;;;;;;;20.67;10.97;;;-1.00;99.90;;;;;;4959385;28;20499;-79
2022/03/13 04:00:14;;;;;;;17.80;9.83;;;-1.00;99.90;;;;;;4960407;28;20444;-79
2022/03/13 04:02:41;;;;;;;24.73;12.60;;;-1.00;99.90;;;;;;4957997;29;20212;-78
2022/03/13 04:05:08;;;;;;;20.70;10.93;;;-0.90;99.90;;;;;;4958938;28;20531;-79
2022/03/13 04:07:36;;;;;;;21.03;10.20;;;-0.90;99.90;;;;;;4959559;28;20416;-79
2022/03/13 04:10:03;;;;;;;22.37;11.03;;;-0.80;99.90;;;;;;4957467;28;20476;-79
2022/03/13 04:12:29;;;;;;;21.30;10.73;;;-0.70;99.90;;;;;;4958968;28;20917;-79
2022/03/13 04:14:54;;;;;;;22.23;11.67;;;-0.60;99.90;;;;;;4958018;28;20450;-80
2022/03/13 04:17:20;;;;;;;16.40;10.00;;;-0.70;99.90;;;;;;4958322;29;20436;-79
2022/03/13 04:19:46;;;;;;;20.40;11.00;;;-0.80;99.90;;;;;;4960143;28;20237;-79
2022/03/13 04:22:12;;;;;;;21.93;11.07;;;-0.80;99.90;;;;;;4958370;29;20606;-79
2022/03/13 04:24:38;;;;;;;17.07;10.40;;;-0.80;99.90;;;;;;4958982;28;20551;-79
2022/03/13 04:27:04;;;;;;;23.83;11.53;;;-0.80;99.90;;;;;;4959574;28;20934;-79
2022/03/13 04:29:30;;;;;;;17.67;10.00;;;-0.80;99.90;;;;;;4959761;28;20177;-79
2022/03/13 04:31:57;;;;;;;19.67;10.60;;;-0.70;99.90;;;;;;4957775;28;20493;-79
2022/03/13 04:34:22;;;;;;;20.20;11.03;;;-0.70;99.90;;;;;;4957933;28;20677;-79
2022/03/13 04:36:49;;;;;;;20.73;11.17;;;-0.70;99.90;;;;;;4957514;28;20433;-79
2022/03/13 04:39:16;;;;;;;20.53;10.97;;;-0.60;99.90;;;;;;4959151;28;20170;-79
2022/03/13 04:41:42;;;;;;;22.30;11.03;;;0.10;99.90;;;;;;4957509;28;20424;-79
2022/03/13 04:44:12;;;;;;;20.87;10.63;;;-0.60;99.90;;;;;;4957521;28;20902;-79
2022/03/13 04:46:38;;;;;;;21.87;11.43;;;-0.20;99.90;;;;;;4957151;28;20541;-79
2022/03/13 04:49:04;;;;;;;21.27;10.77;;;-0.50;99.90;;;;;;4959111;28;20412;-79
2022/03/13 04:51:29;;;;;;;20.07;10.63;;;-0.50;99.90;;;;;;4957492;28;20228;-79
2022/03/13 04:53:55;;;;;;;16.47;10.03;;;-0.50;99.90;;;;;;4958541;28;20966;-79
2022/03/13 04:56:21;;;;;;;18.43;10.03;;;-0.40;99.90;;;;;;4957460;28;20247;-79
2022/03/13 04:58:46;;;;;;;17.27;10.07;;;-0.50;99.90;;;;;;4958878;28;20597;-80
2022/03/13 05:01:12;;;;;;;21.60;11.57;;;-0.50;99.90;;;;;;4957485;28;20640;-80
2022/03/13 05:03:38;;;;;;;20.70;10.87;;;-0.50;99.90;;;;;;4960583;28;20189;-79
2022/03/13 05:06:05;;;;;;;21.20;10.30;;;-0.50;99.90;;;;;;4961636;28;20259;-78
2022/03/13 05:08:31;;;;;;;16.90;10.17;;;-0.50;99.90;;;;;;4960580;28;20188;-79
2022/03/13 05:10:57;;;;;;;19.33;9.90;;;-0.50;99.90;;;;;;4962080;28;20413;-78
2022/03/13 05:13:24;;;;;;;19.17;10.40;;;-0.50;99.90;;;;;;4961932;29;20476;-78
2022/03/13 05:15:52;;;;;;;18.70;9.80;;;-0.50;99.90;;;;;;4960720;28;20204;-79
2022/03/13 05:18:18;;;;;;;20.23;10.10;;;-0.60;99.90;;;;;;4960736;28;20425;-79
2022/03/13 05:20:45;;;;;;;22.50;10.83;;;-0.60;99.90;;;;;;4960355;29;20424;-79
2022/03/13 05:23:11;;;;;;;20.07;10.13;;;-0.60;99.90;;;;;;4960145;28;20432;-79
2022/03/13 05:25:39;;;;;;;20.97;10.47;;;-0.60;99.90;;;;;;4960364;28;20464;-79
2022/03/13 05:28:06;;;;;;;17.03;10.20;;;-0.70;99.90;;;;;;4960482;28;20421;-79
2022/03/13 05:30:32;;;;;;;20.30;10.80;;;-0.70;99.90;;;;;;4960630;28;20429;-79
2022/03/13 05:32:58;;;;;;;15.90;9.73;;;-0.80;99.90;;;;;;4962007;28;20417;-79
2022/03/13 05:35:24;;;;;;;20.87;10.53;;;-0.60;99.90;;;;;;4960718;29;20448;-79
2022/03/13 05:37:50;;;;;;;21.17;11.30;;;-0.10;99.90;;;;;;4959724;28;20264;-81
2022/03/13 05:40:18;;;;;;;20.57;9.30;;;-0.60;99.90;;;;;;4961140;28;20884;-79
2022/03/13 05:42:47;;;;;;;20.57;10.57;;;-0.80;99.90;;;;;;4959520;29;20431;-79
2022/03/13 05:45:15;;;;;;;20.63;10.77;;;-0.90;99.90;;;;;;4960674;28;20573;-81
2022/03/13 05:47:49;;;;;;;19.13;10.40;;;-1.00;99.90;;;;;;4960957;28;20560;-79
2022/03/13 05:50:17;;;;;;;17.13;10.00;;;-1.00;99.90;;;;;;4959829;28;20903;-81
2022/03/13 05:52:44;;;;;;;17.00;9.80;;;-1.00;99.90;;;;;;4960965;28;20412;-79
2022/03/13 05:55:10;;;;;;;21.83;10.83;;;-0.70;99.90;;;;;;4959927;29;20472;-79
2022/03/13 05:57:35;;;;;;;20.87;11.37;;;-1.20;99.90;;;;;;4959640;29;20512;-79
2022/03/13 06:00:05;;;;;;;20.13;10.77;;;-1.20;99.90;;;;;;4960567;28;20457;-79
2022/03/13 06:02:32;;;;;;;17.47;10.57;;;-1.20;99.90;;;;;;4961410;28;20204;-80
2022/03/13 06:04:58;;;;;;;21.87;11.37;;;-1.30;99.90;;;;;;4959673;28;20519;-79
2022/03/13 06:07:23;;;;;;;22.27;11.47;;;-1.10;99.90;;;;;;4960047;28;20918;-80
2022/03/13 06:09:51;;;;;;;20.67;10.43;;;-1.10;99.90;;;;;;4960269;28;20188;-80
2022/03/13 06:12:17;;;;;;;21.63;11.53;;;-1.00;99.90;;;;;;4961484;28;20177;-79
2022/03/13 06:14:43;;;;;;;20.77;9.70;;;-1.00;99.90;;;;;;4958278;28;20459;-80
2022/03/13 06:17:09;;;;;;;17.50;9.47;;;-1.00;99.90;;;;;;4961180;29;20209;-79
2022/03/13 06:19:39;;;;;;;19.83;11.17;;;-0.90;99.90;;;;;;4962014;29;20425;-79
2022/03/13 06:22:05;;;;;;;18.37;10.57;;;-0.90;99.90;;;;;;4961912;28;20181;-80
2022/03/13 06:24:32;;;;;;;20.57;10.50;;;-0.30;99.90;;;;;;4962029;28;20499;-79
2022/03/13 06:26:58;;;;;;;17.57;10.63;;;-0.70;99.90;;;;;;4961064;28;20639;-79
2022/03/13 06:29:24;;;;;;;22.93;10.77;;;-0.60;99.90;;;;;;4960607;28;20424;-79
2022/03/13 06:31:50;;;;;;;22.63;10.70;;;-0.50;99.90;;;;;;4959028;29;20236;-80
2022/03/13 06:34:16;;;;;;;21.10;10.60;;;-0.30;99.90;;;;;;4957471;28;20417;-79
2022/03/13 06:36:43;;;;;;;19.03;9.50;;;-0.30;99.90;;;;;;4963432;28;20241;-80
2022/03/13 06:39:08;;;;;;;17.10;9.23;;;0.20;99.90;;;;;;4959454;29;20188;-80
2022/03/13 06:41:34;;;;;;;18.90;9.77;;;0.00;99.90;;;;;;4960210;29;20412;-80
2022/03/13 06:44:00;;;;;;;18.73;8.53;;;-0.10;99.90;;;;;;4959740;28;20181;-80
2022/03/13 06:46:25;;;;;;;15.10;7.63;;;0.40;99.90;;;;;;4960211;29;20709;-79
2022/03/13 06:48:52;;;;;;;14.33;8.40;;;0.20;99.90;;;;;;4961005;29;20646;-80
2022/03/13 06:51:17;;;;;;;12.30;7.77;;;1.00;99.90;;;;;;4962466;29;20174;-80
2022/03/13 06:53:43;;;;;;;16.77;9.23;;;0.30;99.90;;;;;;4961575;29;20483;-80
2022/03/13 06:56:09;;;;;;;13.90;8.33;;;0.50;99.90;;;;;;4960809;29;20220;-80
2022/03/13 06:58:35;;;;;;;17.70;8.90;;;1.20;99.90;;;;;;4961159;29;20255;-81
2022/03/13 07:01:01;;;;;;;15.97;8.57;;;0.80;99.90;;;;;;4960291;29;20670;-80
2022/03/13 07:03:26;;;;;;;16.70;9.70;;;0.90;99.90;;;;;;4959594;28;20239;-80
2022/03/13 07:05:52;;;;;;;17.37;9.07;;;1.10;99.90;;;;;;4959545;29;20209;-80
2022/03/13 07:08:18;;;;;;;14.40;7.57;;;1.30;99.90;;;;;;4959532;28;20188;-80
2022/03/13 07:10:43;;;;;;;16.73;9.10;;;1.50;99.90;;;;;;4959914;29;20176;-80
2022/03/13 07:13:10;;;;;;;15.77;7.50;;;1.70;99.90;;;;;;4959676;29;20173;-81
2022/03/13 07:15:36;;;;;;;11.60;6.87;;;1.80;99.90;;;;;;4958530;29;20281;-81
2022/03/13 07:18:02;;;;;;;13.50;7.23;;;;;;;;;;4958750;29;20452;-81
2022/03/13 07:20:28;;;;;;;10.43;6.87;;;2.10;99.90;;;;;;4959441;29;20416;-81
2022/03/13 07:22:54;;;;;;;12.97;7.27;;;2.30;99.90;;;;;;4959523;29;20950;-81
2022/03/13 07:25:20;;;;;;;13.03;6.87;;;;;;;;;;4958866;28;20205;-81
2022/03/13 07:27:46;;;;;;;11.97;6.90;;;2.70;99.90;;;;;;4957800;29;20655;-81
2022/03/13 07:30:13;;;;;;;11.80;6.33;;;3.00;99.90;;;;;;4959955;29;20181;-80
2022/03/13 07:32:40;;;;;;;11.47;7.00;;;3.30;99.90;;;;;;4959766;29;20173;-81
2022/03/13 07:35:07;;;;;;;12.83;6.50;;;3.40;99.90;;;;;;4957778;28;20494;-80
2022/03/13 07:37:33;;;;;;;9.57;5.70;;;3.60;99.90;;;;;;4957994;29;20185;-80
2022/03/13 07:40:00;;;;;;;15.33;6.63;;;;;;;;;;4959278;29;20232;-80
2022/03/13 07:42:25;;;;;;;11.77;6.33;;;4.40;99.00;;;;;;4957405;29;20186;-84
2022/03/13 07:44:51;;;;;;;11.97;6.23;;;4.50;99.10;;;;;;4957802;29;20273;-81
2022/03/13 07:47:18;;;;;;;12.97;7.20;;;5.00;96.70;;;;;;4959333;29;20170;-81
2022/03/13 07:49:44;;;;;;;9.80;5.10;;;5.60;94.60;;;;;;4959805;29;20585;-81
2022/03/13 07:52:10;;;;;;;9.70;6.37;;;6.20;92.00;;;;;;4958793;29;20232;-81
2022/03/13 07:54:35;;;;;;;10.53;6.57;;;6.50;89.90;;;;;;4959492;29;20213;-81
2022/03/13 07:57:01;;;;;;;10.17;6.10;;;6.80;85.90;;;;;;4958544;29;20185;-81
2022/03/13 07:59:27;;;;;;;11.00;6.80;;;7.50;82.70;;;;;;4960382;29;20190;-81
2022/03/13 08:01:53;;;;;;;10.50;6.27;;;8.00;78.20;;;;;;4959778;29;20186;-82
2022/03/13 08:04:19;;;;;;;10.63;7.13;;;8.60;75.20;;;;;;4957954;29;20708;-81
2022/03/13 08:06:44;;;;;;;9.97;6.30;;;9.10;71.20;;;;;;4957945;29;20692;-82
2022/03/13 08:09:10;;;;;;;12.10;7.13;;;9.30;67.50;;;;;;4958129;29;20220;-80
2022/03/13 08:11:38;;;;;;;9.77;5.97;;;9.50;65.70;;;;;;4957334;29;20272;-81
2022/03/13 08:14:04;;;;;;;8.80;5.70;;;9.80;64.60;;;;;;4956737;29;20181;-81
2022/03/13 08:16:30;;;;;;;10.93;5.80;;;10.60;60.70;;;;;;4958179;29;20179;-81
2022/03/13 08:18:56;;;;;;;10.67;5.73;;;11.30;57.60;;;;;;4956712;29;20188;-81
2022/03/13 08:21:22;;;;;;;7.97;5.60;;;11.70;57.50;;;;;;4956714;28;20274;-81
2022/03/13 08:23:48;;;;;;;9.00;5.70;;;12.10;54.30;;;;;;4957292;29;20189;-83
2022/03/13 08:26:13;;;;;;;8.33;5.47;;;12.10;52.00;;;;;;4958614;29;20205;-82
2022/03/13 08:28:43;;;;;;;9.17;5.70;;;12.00;50.80;;;;;;4958847;29;20203;-82
2022/03/13 08:31:08;;;;;;;7.93;5.43;;;12.50;51.90;;;;;;4957902;29;20584;-81
2022/03/13 08:33:34;;;;;;;8.90;5.50;;;12.90;49.50;;;;;;4958484;29;20180;-81
2022/03/13 08:36:00;;;;;;;9.10;5.90;;;13.20;47.90;;;;;;4958964;28;20256;-81
2022/03/13 08:38:26;;;;;;;9.67;5.83;;;13.10;48.30;;;;;;4962735;29;20184;-81
2022/03/13 08:40:52;;;;;;;9.17;6.33;;;13.10;48.40;;;;;;4962648;29;20236;-81
2022/03/13 08:43:18;;;;;;;9.60;5.83;;;13.40;48.00;;;;;;4961616;28;20193;-81
2022/03/13 08:45:44;;;;;;;12.03;5.43;;;13.60;47.60;;;;;;4960838;29;20212;-81
2022/03/13 08:48:10;;;;;;;7.57;5.50;;;13.50;46.70;;;;;;4962237;29;20245;-81
2022/03/13 08:50:36;;;;;;;9.03;5.77;;;13.60;48.10;;;;;;4960181;29;20189;-82
2022/03/13 08:53:01;;;;;;;8.43;5.80;;;13.70;46.60;;;;;;4959796;29;20330;-82
2022/03/13 08:55:27;;;;;;;8.70;6.30;;;14.20;48.20;;;;;;4961365;29;20673;-82
2022/03/13 08:57:53;;;;;;;10.30;6.83;;;14.30;46.70;;;;;;4961363;29;20180;-82
2022/03/13 09:00:21;;;;;;;10.73;7.30;;;14.40;45.50;;;;;;4961470;29;20651;-82
2022/03/13 09:02:47;;;;;;;10.67;7.40;;;14.40;45.50;;;;;;4961168;29;20179;-82
2022/03/13 09:05:14;;;;;;;10.20;7.10;;;14.90;47.10;;;;;;4960784;29;20616;-83
2022/03/13 09:07:40;;;;;;;9.70;7.53;;;15.30;45.70;;;;;;4961465;29;20177;-83
2022/03/13 09:10:11;;;;;;;11.40;6.77;;;15.40;43.80;;;;;;4959846;29;20191;-80
2022/03/13 09:12:38;;;;;;;11.20;7.17;;;15.60;46.10;;;;;;4960900;29;20181;-80
2022/03/13 09:15:05;;;;;;;11.03;8.03;;;15.70;45.60;;;;;;4958343;29;20201;-80
2022/03/13 09:17:31;;;;;;;10.73;7.90;;;16.00;45.70;;;;;;4959552;29;20243;-80
2022/03/13 09:19:58;;;;;;;11.33;8.27;;;16.10;46.00;;;;;;4961978;29;20204;-80
2022/03/13 09:22:28;;;;;;;10.57;8.17;;;16.20;46.00;;;;;;4962427;29;20240;-80
2022/03/13 09:24:57;;;;;;;10.37;8.13;;;16.00;44.40;;;;;;4961144;29;20214;-80
2022/03/13 09:27:26;;;;;;;11.47;8.03;;;15.90;47.10;;;;;;4964167;29;20178;-81
2022/03/13 09:29:53;;;;;;;11.17;8.03;;;16.20;45.30;;;;;;4962236;29;20187;-81
2022/03/13 09:32:19;;;;;;;10.67;8.50;;;16.20;46.40;;;;;;4962127;29;20652;-80
2022/03/13 09:34:45;;;;;;;10.00;8.10;;;16.30;45.80;;;;;;4962227;29;20203;-81
2022/03/13 09:37:10;;;;;;;10.23;8.20;;;16.30;45.00;;;;;;4964706;29;20166;-81
2022/03/13 09:39:36;;;;;;;13.27;8.30;;;16.20;47.70;;;;;;4963315;29;20207;-81
2022/03/13 09:42:02;;;;;;;10.37;8.47;;;16.00;45.70;;;;;;4963512;29;20174;-82
2022/03/13 09:44:28;;;;;;;12.37;8.40;;;16.30;48.70;;;;;;4963187;29;20320;-81
2022/03/13 09:46:54;;;;;;;11.33;8.40;;;15.90;44.80;;;;;;4963498;29;20184;-81
2022/03/13 09:49:21;;;;;;;12.70;8.07;;;15.80;48.80;;;;;;4962807;28;20186;-80
2022/03/13 09:51:47;;;;;;;11.93;9.03;;;15.70;49.10;;;;;;4963236;29;20184;-81
2022/03/13 09:54:13;;;;;;;13.53;9.37;;;15.80;47.80;;;;;;4961730;29;20216;-81
2022/03/13 09:56:39;;;;;;;12.53;8.93;;;15.80;48.50;;;;;;4961730;29;20215;-81
2022/03/13 09:59:05;;;;;;;11.53;9.07;;;16.00;49.80;;;;;;4962529;29;20644;-81
2022/03/13 10:01:30;;;;;;;12.93;9.33;;;16.20;50.40;;;;;;4961393;29;20185;-82
2022/03/13 10:03:56;;;;;;;11.47;8.97;;;16.50;48.70;;;;;;4962834;29;20211;-82
2022/03/13 10:06:22;;;;;;;14.10;9.90;;;16.70;50.50;;;;;;4961659;29;20315;-81
2022/03/13 10:08:48;;;;;;;14.90;10.30;;;16.90;49.90;;;;;;4960909;28;20195;-81
2022/03/13 10:11:14;;;;;;;15.10;9.97;;;16.80;49.50;;;;;;4962372;28;20185;-79
2022/03/13 10:13:45;;;;;;;11.67;9.13;;;16.70;49.60;;;;;;4962108;29;20192;-82
2022/03/13 10:16:15;;;;;;;11.10;9.90;;;16.90;48.40;;;;;;4967472;29;20220;-81
2022/03/13 10:18:40;;;;;;;12.03;9.93;;;17.00;48.30;;;;;;4976544;29;20213;-81
2022/03/13 10:21:12;;;;;;;19.37;10.13;;;16.90;47.90;;;;;;4973757;28;20189;-79
2022/03/13 10:23:39;;;;;;;19.37;10.47;;;16.70;48.10;;;;;;4960923;28;20181;-80
2022/03/13 10:26:05;;;;;;;12.57;10.40;;;16.80;49.70;;;;;;4959811;28;20200;-78
2022/03/13 10:28:40;;;;;;;16.03;10.33;;;17.00;47.50;;;;;;4958709;28;20242;-80
2022/03/13 10:31:11;;;;;;;12.13;9.07;;;16.80;46.30;;;;;;4958914;28;20184;-80
2022/03/13 10:33:43;;;;;;;11.50;9.57;;;16.80;45.20;;;;;;4959570;29;20240;-82
2022/03/13 10:36:11;;;;;;;21.80;9.80;;;17.30;48.10;;;;;;4958331;29;20684;-80
2022/03/13 10:38:38;;;;;;;13.00;9.37;;;18.00;51.80;;;;;;4959058;29;20189;-79
2022/03/13 10:41:08;;;;;;;11.23;9.30;;;18.20;45.70;;;;;;4959713;29;20185;-79
2022/03/13 10:43:58;;;;;;;12.17;9.67;;;18.00;45.80;;;;;;4960521;29;20236;-79
2022/03/13 10:46:29;;;;;;;12.13;8.90;;;18.00;44.30;;;;;;4956393;28;20244;-79
2022/03/13 10:48:56;;;;;;;11.63;8.30;;;18.30;45.20;;;;;;4959671;29;20181;-78
2022/03/13 10:51:45;;;;;;;13.80;9.63;;;18.30;42.40;;;;;;4959230;29;20187;-79
2022/03/13 10:54:26;;;;;;;10.07;8.00;;;17.90;45.10;;;;;;4958452;29;20194;-80
2022/03/13 10:57:04;;;;;;;10.17;7.10;;;17.70;43.70;;;;;;4963465;29;20189;-81
2022/03/13 10:59:30;;;;;;;8.00;6.70;;;17.90;42.90;;;;;;4960032;28;20179;-82
2022/03/13 11:02:16;;;;;;;7.57;6.43;;;17.20;41.30;;;;;;4963120;29;20173;-82
2022/03/13 11:04:49;;;;;;;7.17;5.80;;;17.00;41.20;;;;;;4961885;28;20664;-82
2022/03/13 11:07:17;;;;;;;7.43;5.67;;;17.50;41.80;;;;;;4964171;29;20240;-82
2022/03/13 11:09:43;;;;;;;6.03;5.30;;;18.10;42.40;;;;;;4963955;29;20182;-82
2022/03/13 11:12:10;;;;;;;6.93;4.57;;;18.50;38.30;;;;;;4963267;29;20188;-83
2022/03/13 11:14:37;;;;;;;7.20;4.90;;;18.50;38.80;;;;;;4962018;29;20683;-82
2022/03/13 11:17:03;;;;;;;6.63;4.90;;;18.80;39.80;;;;;;4962019;29;20177;-82
2022/03/13 11:19:30;;;;;;;4.90;4.50;;;19.40;36.60;;;;;;4961169;29;20185;-83
2022/03/13 11:21:55;;;;;;;6.43;5.60;;;19.30;34.90;;;;;;4958932;29;20184;-83
2022/03/13 11:24:23;;;;;;;5.37;4.70;;;18.90;36.20;;;;;;4962023;29;20193;-82
2022/03/13 11:26:51;;;;;;;6.77;5.30;;;18.60;34.90;;;;;;4959933;29;20175;-80
2022/03/13 11:29:40;;;;;;;5.80;5.20;;;18.70;37.80;;;;;;4958207;29;20182;-79
2022/03/13 11:32:31;;;;;;;6.27;5.53;;;19.20;35.40;;;;;;4956353;28;20225;-80
2022/03/13 11:35:15;;;;;;;6.90;5.73;;;18.90;35.30;;;;;;4957865;29;20241;-80
2022/03/13 11:37:43;;;;;;;8.13;5.57;;;19.00;35.30;;;;;;4959263;29;20246;-79
2022/03/13 11:40:11;;;;;;;6.87;6.07;;;19.40;37.10;;;;;;4962630;29;20256;-82
2022/03/13 11:43:04;;;;;;;6.37;5.43;;;19.40;35.00;;;;;;4963959;29;20233;-81
2022/03/13 11:45:34;;;;;;;6.23;5.27;;;19.10;36.00;;;;;;4961270;29;20205;-80
2022/03/13 11:48:13;;;;;;;6.50;5.40;;;19.10;36.60;;;;;;4960275;29;20177;-80
2022/03/13 11:50:59;;;;;;;9.40;6.33;;;19.50;35.40;;;;;;4961452;29;20175;-80
2022/03/13 11:53:29;;;;;;;8.17;6.83;;;19.90;36.70;;;;;;4959369;29;20633;-80
2022/03/13 11:56:00;;;;;;;8.07;7.17;;;19.90;35.90;;;;;;4959463;29;20218;-82
2022/03/13 11:58:42;;;;;;;7.57;6.80;;;19.90;37.00;;;;;;4957802;29;20177;-80
2022/03/13 12:01:15;;;;;;;7.40;6.67;;;19.80;36.80;;;;;;4956848;29;20253;-80
2022/03/13 12:04:00;;;;;;;9.17;6.80;;;20.10;36.10;;;;;;4957409;29;20161;-81
2022/03/13 12:06:42;;;;;;;9.50;6.97;;;20.60;36.20;;;;;;4954687;28;20210;-79
2022/03/13 12:09:11;;;;;;;7.97;6.27;;;21.10;36.40;;;;;;4954926;29;20609;-80
2022/03/13 12:11:45;;;;;;;8.70;6.77;;;21.50;36.40;;;;;;4962433;28;20236;-79
2022/03/13 12:14:12;;;;;;;6.53;5.27;;;21.80;35.50;;;;;;4963288;29;20213;-79
2022/03/13 12:16:40;;;;;;;10.90;6.13;;;21.60;32.70;;;;;;4962059;29;20201;-79
2022/03/13 12:19:08;;;;;;;6.93;5.80;;;21.80;34.70;;;;;;4964005;29;20175;-80
2022/03/13 12:21:34;;;;;;;6.87;6.03;;;22.00;32.40;;;;;;4963247;29;20170;-79
2022/03/13 12:24:18;;;;;;;8.90;6.07;;;21.60;32.10;;;;;;4962657;29;20530;-82
2022/03/13 12:26:45;;;;;;;6.97;6.20;;;21.40;33.80;;;;;;4962289;29;20183;-81
2022/03/13 12:29:19;;;;;;;10.10;6.40;;;21.50;33.40;;;;;;4965108;29;20174;-81
2022/03/13 12:31:46;;;;;;;8.73;6.60;;;21.50;32.00;;;;;;4963561;29;20188;-81
2022/03/13 12:34:13;;;;;;;7.73;6.20;;;21.50;33.90;;;;;;4964350;29;20187;-80
2022/03/13 12:36:41;;;;;;;8.57;6.73;;;21.80;34.40;;;;;;4964185;29;20211;-81
2022/03/13 12:39:14;;;;;;;9.77;6.03;;;22.20;32.50;;;;;;4963930;29;20174;-80
2022/03/13 12:41:42;;;;;;;7.63;6.17;;;22.30;31.40;;;;;;4962533;29;20205;-80